createdAt,value
2023-03-12T00:00:54.340Z,999.90
2023-03-12T00:01:54.338Z,999.90
2023-03-12T00:02:54.392Z,999.90
2023-03-12T00:03:54.447Z,999.90
2023-03-12T00:04:54.308Z,999.90
2023-03-12T00:05:54.272Z,999.90
2023-03-12T00:06:54.268Z,999.90
2023-03-12T00:07:54.324Z,999.90
2023-03-12T00:08:56.303Z,999.90
2023-03-12T00:09:54.276Z,999.90
2023-03-12T00:10:54.227Z,999.90
2023-03-12T00:11:54.221Z,999.90
2023-03-12T00:12:54.273Z,999.90
2023-03-12T00:13:54.192Z,999.90
2023-03-12T00:14:54.209Z,999.90
2023-03-12T00:15:54.205Z,999.90
2023-03-12T00:16:54.176Z,999.90
2023-03-12T00:17:54.219Z,999.90
2023-03-12T00:18:54.140Z,999.90
2023-03-12T00:19:54.148Z,999.90
2023-03-12T00:20:54.136Z,999.90
2023-03-12T00:21:54.119Z,999.90
2023-03-12T00:22:54.143Z,394.20
2023-03-12T00:23:54.092Z,999.90
2023-03-12T00:24:54.081Z,999.90
2023-03-12T00:25:54.066Z,999.90
2023-03-12T00:26:54.059Z,999.90
2023-03-12T00:27:54.091Z,999.90
2023-03-12T00:28:54.058Z,999.90
2023-03-12T00:29:54.025Z,999.90
2023-03-12T00:30:57.067Z,999.90
2023-03-12T00:31:54.009Z,999.90
2023-03-12T00:32:54.082Z,573.80
2023-03-12T00:33:53.977Z,768.00
2023-03-12T00:34:53.983Z,477.90
2023-03-12T00:35:54.000Z,631.50
2023-03-12T00:36:53.947Z,684.90
2023-03-12T00:37:53.973Z,609.10
2023-03-12T00:38:53.922Z,663.90
2023-03-12T00:39:53.920Z,749.30
2023-03-12T00:40:53.903Z,544.00
2023-03-12T00:41:53.883Z,709.40
2023-03-12T00:42:53.932Z,999.90
2023-03-12T00:43:53.860Z,999.90
2023-03-12T00:44:53.857Z,946.90
2023-03-12T00:45:53.836Z,972.90
2023-03-12T00:46:53.894Z,943.60
2023-03-12T00:47:53.818Z,929.20
2023-03-12T00:48:53.866Z,947.00
2023-03-12T00:49:53.800Z,935.90
2023-03-12T00:50:53.793Z,836.50
2023-03-12T00:51:53.798Z,901.90
2023-03-12T00:52:53.800Z,425.20
2023-03-12T00:53:53.818Z,357.70
2023-03-12T00:54:53.794Z,939.50
2023-03-12T00:55:53.732Z,772.90
2023-03-12T00:56:53.746Z,819.90
2023-03-12T00:57:53.716Z,644.20
2023-03-12T00:58:53.747Z,520.30
2023-03-12T00:59:53.688Z,536.60
2023-03-12T01:00:53.720Z,489.30
2023-03-12T01:01:53.677Z,497.00
2023-03-12T01:02:53.667Z,498.30
2023-03-12T01:03:53.684Z,481.80
2023-03-12T01:04:53.623Z,484.00
2023-03-12T01:05:53.609Z,483.90
2023-03-12T01:06:53.612Z,477.30
2023-03-12T01:07:53.596Z,447.20
2023-03-12T01:08:53.629Z,460.60
2023-03-12T01:09:53.574Z,451.30
2023-03-12T01:10:53.570Z,437.80
2023-03-12T01:11:53.567Z,409.30
2023-03-12T01:12:53.548Z,332.30
2023-03-12T01:13:53.571Z,346.90
2023-03-12T01:14:53.539Z,373.50
2023-03-12T01:15:53.516Z,393.40
2023-03-12T01:16:53.626Z,403.70
2023-03-12T01:17:53.498Z,421.20
2023-03-12T01:18:53.516Z,474.80
2023-03-12T01:19:53.467Z,501.70
2023-03-12T01:20:53.461Z,591.50
2023-03-12T01:21:53.446Z,671.90
2023-03-12T01:22:53.439Z,688.80
2023-03-12T01:23:53.462Z,773.40
2023-03-12T01:24:53.446Z,807.10
2023-03-12T01:25:53.406Z,816.10
2023-03-12T01:26:53.404Z,834.70
2023-03-12T01:27:53.382Z,842.70
2023-03-12T01:28:53.415Z,841.00
2023-03-12T01:29:53.358Z,832.90
2023-03-12T01:30:53.351Z,747.20
2023-03-12T01:31:53.448Z,629.40
2023-03-12T01:32:53.404Z,609.70
2023-03-12T01:33:53.347Z,591.10
2023-03-12T01:34:53.304Z,591.90
2023-03-12T01:35:53.459Z,632.40
2023-03-12T01:36:53.270Z,999.90
2023-03-12T01:37:53.285Z,999.90
2023-03-12T01:38:53.298Z,685.60
2023-03-12T01:39:53.284Z,821.90
2023-03-12T01:40:53.244Z,776.30
2023-03-12T01:41:53.227Z,757.80
2023-03-12T01:42:53.215Z,785.50
2023-03-12T01:43:53.236Z,829.60
2023-03-12T01:44:53.208Z,806.60
2023-03-12T01:45:53.219Z,734.00
2023-03-12T01:46:53.174Z,528.30
2023-03-12T01:47:53.151Z,666.40
2023-03-12T01:48:53.174Z,648.40
2023-03-12T01:49:53.141Z,601.10
2023-03-12T01:50:53.125Z,630.50
2023-03-12T01:51:53.121Z,588.30
2023-03-12T01:52:53.107Z,619.70
2023-03-12T01:53:53.131Z,626.00
2023-03-12T01:54:53.096Z,563.40
2023-03-12T01:55:53.063Z,519.70
2023-03-12T01:56:53.065Z,513.30
2023-03-12T01:57:53.045Z,537.90
2023-03-12T01:58:53.080Z,498.10
2023-03-12T01:59:53.033Z,465.10
2023-03-12T02:00:53.043Z,467.50
2023-03-12T02:01:53.008Z,421.20
2023-03-12T02:02:52.991Z,642.90
2023-03-12T02:03:53.128Z,719.40
2023-03-12T02:04:52.971Z,461.10
2023-03-12T02:05:52.967Z,394.40
2023-03-12T02:06:52.946Z,372.00
2023-03-12T02:07:52.935Z,364.10
2023-03-12T02:08:52.984Z,372.60
2023-03-12T02:09:52.923Z,330.40
2023-03-12T02:10:52.905Z,403.50
2023-03-12T02:11:52.888Z,449.20
2023-03-12T02:12:52.886Z,473.80
2023-03-12T02:13:52.928Z,454.20
2023-03-12T02:14:52.863Z,344.70
2023-03-12T02:15:52.839Z,332.20
2023-03-12T02:16:52.971Z,385.10
2023-03-12T02:17:52.834Z,401.40
2023-03-12T02:18:52.863Z,385.30
2023-03-12T02:19:52.796Z,394.70
2023-03-12T02:20:52.794Z,370.30
2023-03-12T02:21:52.781Z,358.80
2023-03-12T02:22:52.787Z,413.90
2023-03-12T02:23:52.796Z,439.10
2023-03-12T02:24:52.764Z,383.00
2023-03-12T02:25:52.769Z,387.20
2023-03-12T02:26:52.737Z,366.30
2023-03-12T02:27:52.713Z,350.80
2023-03-12T02:28:52.756Z,361.30
2023-03-12T02:29:52.698Z,335.50
2023-03-12T02:30:52.728Z,337.60
2023-03-12T02:31:52.754Z,336.10
2023-03-12T02:32:52.717Z,382.50
2023-03-12T02:33:52.684Z,378.00
2023-03-12T02:34:52.633Z,422.10
2023-03-12T02:35:52.676Z,455.90
2023-03-12T02:36:52.608Z,409.50
2023-03-12T02:37:52.616Z,449.00
2023-03-12T02:38:52.640Z,545.00
2023-03-12T02:39:52.581Z,560.00
2023-03-12T02:40:52.580Z,540.20
2023-03-12T02:41:52.564Z,473.70
2023-03-12T02:42:52.540Z,395.30
2023-03-12T02:43:52.585Z,385.00
2023-03-12T02:44:52.526Z,425.20
2023-03-12T02:45:52.559Z,408.20
2023-03-12T02:46:52.517Z,426.10
2023-03-12T02:47:52.501Z,401.40
2023-03-12T02:48:52.529Z,388.10
2023-03-12T02:49:52.475Z,352.90
2023-03-12T02:50:52.469Z,306.60
2023-03-12T02:51:52.470Z,295.80
2023-03-12T02:52:52.449Z,275.20
2023-03-12T02:53:52.480Z,242.20
2023-03-12T02:54:52.422Z,375.20
2023-03-12T02:55:52.414Z,405.00
2023-03-12T02:56:52.411Z,441.50
2023-03-12T02:57:52.394Z,537.50
2023-03-12T02:58:52.417Z,438.00
2023-03-12T02:59:52.367Z,416.60
2023-03-12T03:00:52.371Z,505.00
2023-03-12T03:01:52.339Z,566.20
2023-03-12T03:02:52.333Z,608.00
2023-03-12T03:03:52.390Z,769.30
2023-03-12T03:04:52.299Z,600.00
2023-03-12T03:05:52.307Z,476.80
2023-03-12T03:06:52.274Z,583.30
2023-03-12T03:07:52.265Z,768.60
2023-03-12T03:08:52.318Z,841.80
2023-03-12T03:09:52.253Z,853.60
2023-03-12T03:10:52.236Z,836.00
2023-03-12T03:11:52.265Z,811.80
2023-03-12T03:12:52.213Z,557.10
2023-03-12T03:13:52.269Z,573.20
2023-03-12T03:14:52.205Z,420.40
2023-03-12T03:15:52.235Z,389.60
2023-03-12T03:16:52.186Z,415.00
2023-03-12T03:17:52.171Z,395.20
2023-03-12T03:18:52.206Z,455.40
2023-03-12T03:19:52.150Z,468.30
2023-03-12T03:20:52.132Z,457.70
2023-03-12T03:21:52.148Z,373.60
2023-03-12T03:22:52.115Z,397.30
2023-03-12T03:23:52.179Z,395.20
2023-03-12T03:24:52.093Z,395.20
2023-03-12T03:25:52.076Z,392.50
2023-03-12T03:26:52.069Z,402.90
2023-03-12T03:27:52.066Z,396.80
2023-03-12T03:28:52.095Z,380.50
2023-03-12T03:29:57.363Z,318.50
2023-03-12T03:30:52.112Z,280.10
2023-03-12T03:31:52.031Z,343.10
2023-03-12T03:32:52.049Z,411.10
2023-03-12T03:33:52.065Z,356.50
2023-03-12T03:34:52.020Z,309.60
2023-03-12T03:35:52.034Z,301.80
2023-03-12T03:36:51.964Z,276.20
2023-03-12T03:37:51.934Z,241.10
2023-03-12T03:38:52.000Z,194.00
2023-03-12T03:39:51.949Z,173.00
2023-03-12T03:40:51.925Z,167.20
2023-03-12T03:41:51.917Z,157.70
2023-03-12T03:42:51.899Z,181.40
2023-03-12T03:43:51.928Z,193.20
2023-03-12T03:44:51.897Z,197.20
2023-03-12T03:45:51.911Z,169.50
2023-03-12T03:46:51.859Z,150.90
2023-03-12T03:47:51.827Z,225.50
2023-03-12T03:48:51.881Z,263.70
2023-03-12T03:49:51.830Z,326.30
2023-03-12T03:50:51.807Z,511.60
2023-03-12T03:51:51.842Z,663.10
2023-03-12T03:52:51.783Z,439.60
2023-03-12T03:53:51.808Z,303.10
2023-03-12T03:54:51.783Z,297.50
2023-03-12T03:55:51.769Z,321.80
2023-03-12T03:56:51.745Z,453.20
2023-03-12T03:57:51.740Z,594.80
2023-03-12T03:58:51.778Z,617.90
2023-03-12T03:59:51.706Z,468.70
2023-03-12T04:00:51.719Z,332.80
2023-03-12T04:01:51.697Z,372.80
2023-03-12T04:02:51.680Z,363.70
2023-03-12T04:03:51.735Z,353.40
2023-03-12T04:04:52.311Z,431.70
2023-03-12T04:05:51.666Z,585.60
2023-03-12T04:06:51.645Z,749.50
2023-03-12T04:07:51.608Z,815.00
2023-03-12T04:08:51.613Z,790.30
2023-03-12T04:09:51.626Z,663.70
2023-03-12T04:10:51.596Z,557.70
2023-03-12T04:11:51.575Z,612.00
2023-03-12T04:12:51.582Z,761.30
2023-03-12T04:13:51.550Z,710.90
2023-03-12T04:14:51.574Z,716.80
2023-03-12T04:15:51.642Z,384.80
2023-03-12T04:16:51.525Z,360.50
2023-03-12T04:17:51.572Z,317.00
2023-03-12T04:18:51.499Z,357.70
2023-03-12T04:19:51.534Z,332.60
2023-03-12T04:20:51.515Z,338.60
2023-03-12T04:21:51.484Z,441.30
2023-03-12T04:22:51.457Z,544.80
2023-03-12T04:23:51.450Z,579.20
2023-03-12T04:24:51.493Z,615.60
2023-03-12T04:25:51.435Z,763.60
2023-03-12T04:26:51.422Z,806.30
2023-03-12T04:27:51.397Z,723.00
2023-03-12T04:28:51.398Z,629.50
2023-03-12T04:29:51.420Z,569.50
2023-03-12T04:30:51.368Z,553.70
2023-03-12T04:31:51.361Z,620.60
2023-03-12T04:32:51.404Z,787.00
2023-03-12T04:33:51.338Z,806.20
2023-03-12T04:34:51.360Z,796.40
2023-03-12T04:35:51.315Z,804.90
2023-03-12T04:36:51.298Z,783.00
2023-03-12T04:37:51.278Z,653.80
2023-03-12T04:38:51.283Z,609.50
2023-03-12T04:39:51.307Z,618.20
2023-03-12T04:40:51.258Z,645.20
2023-03-12T04:41:51.260Z,632.90
2023-03-12T04:42:51.242Z,629.80
2023-03-12T04:43:51.236Z,753.20
2023-03-12T04:44:51.266Z,999.90
2023-03-12T04:45:51.213Z,999.90
2023-03-12T04:46:51.293Z,999.90
2023-03-12T04:47:51.185Z,999.90
2023-03-12T04:48:51.170Z,999.90
2023-03-12T04:49:51.211Z,999.90
2023-03-12T04:50:51.158Z,999.90
2023-03-12T04:51:51.133Z,726.80
2023-03-12T04:52:51.134Z,736.50
2023-03-12T04:53:51.115Z,999.90
2023-03-12T04:54:51.166Z,999.90
2023-03-12T04:55:51.099Z,999.90
2023-03-12T04:56:51.092Z,999.90
2023-03-12T04:57:51.102Z,999.90
2023-03-12T04:58:51.065Z,999.90
2023-03-12T04:59:51.092Z,999.90
2023-03-12T05:00:51.051Z,999.90
2023-03-12T05:01:51.028Z,999.90
2023-03-12T05:02:51.061Z,999.90
2023-03-12T05:03:51.025Z,999.90
2023-03-12T05:04:51.042Z,999.90
2023-03-12T05:05:50.982Z,521.20
2023-03-12T05:06:51.003Z,305.20
2023-03-12T05:07:50.968Z,596.30
2023-03-12T05:08:50.962Z,567.30
2023-03-12T05:09:50.985Z,501.90
2023-03-12T05:10:50.950Z,251.20
2023-03-12T05:11:50.928Z,316.60
2023-03-12T05:12:50.916Z,313.50
2023-03-12T05:13:50.912Z,298.50
2023-03-12T05:14:50.952Z,300.00
2023-03-12T05:15:51.004Z,285.40
2023-03-12T05:16:50.865Z,230.90
2023-03-12T05:17:50.858Z,240.10
2023-03-12T05:18:50.875Z,237.80
2023-03-12T05:19:50.883Z,235.20
2023-03-12T05:20:50.841Z,245.60
2023-03-12T05:21:50.809Z,233.70
2023-03-12T05:22:50.805Z,221.00
2023-03-12T05:23:50.791Z,229.90
2023-03-12T05:24:50.822Z,211.30
2023-03-12T05:25:50.769Z,194.40
2023-03-12T05:26:50.764Z,202.20
2023-03-12T05:27:50.743Z,251.00
2023-03-12T05:28:50.739Z,317.60
2023-03-12T05:29:50.748Z,337.10
2023-03-12T05:30:50.743Z,267.40
2023-03-12T05:31:50.801Z,332.30
2023-03-12T05:32:50.733Z,497.50
2023-03-12T05:33:52.759Z,424.90
2023-03-12T05:34:50.723Z,329.70
2023-03-12T05:35:50.665Z,291.90
2023-03-12T05:36:50.669Z,148.90
2023-03-12T05:37:50.658Z,431.00
2023-03-12T05:38:50.852Z,364.80
2023-03-12T05:39:50.698Z,330.10
2023-03-12T05:40:50.654Z,289.90
2023-03-12T05:41:50.604Z,263.40
2023-03-12T05:42:50.580Z,135.40
2023-03-12T05:43:52.401Z,232.80
2023-03-12T05:44:50.825Z,258.00
2023-03-12T05:45:50.624Z,208.80
2023-03-12T05:46:50.597Z,279.00
2023-03-12T05:47:50.523Z,303.70
2023-03-12T05:48:50.541Z,198.80
2023-03-12T05:49:50.536Z,220.10
2023-03-12T05:50:50.506Z,218.60
2023-03-12T05:51:51.281Z,233.70
2023-03-12T05:52:50.517Z,249.70
2023-03-12T05:53:50.492Z,179.00
2023-03-12T05:54:50.494Z,121.70
2023-03-12T05:55:50.425Z,139.20
2023-03-12T05:56:50.426Z,291.40
2023-03-12T05:57:50.408Z,224.90
2023-03-12T05:58:50.412Z,446.40
2023-03-12T05:59:50.443Z,327.60
2023-03-12T06:00:50.425Z,310.40
2023-03-12T06:01:50.474Z,255.70
2023-03-12T06:02:50.353Z,291.90
2023-03-12T06:03:50.403Z,420.20
2023-03-12T06:04:50.370Z,242.10
2023-03-12T06:05:50.327Z,330.00
2023-03-12T06:06:50.319Z,709.90
2023-03-12T06:07:50.301Z,739.80
2023-03-12T06:08:50.292Z,802.50
2023-03-12T06:09:50.323Z,872.20
2023-03-12T06:10:50.282Z,553.30
2023-03-12T06:11:50.260Z,742.60
2023-03-12T06:12:50.262Z,836.70
2023-03-12T06:13:50.255Z,893.50
2023-03-12T06:14:50.276Z,999.90
2023-03-12T06:15:50.223Z,999.90
2023-03-12T06:16:50.239Z,501.30
2023-03-12T06:17:50.201Z,551.60
2023-03-12T06:18:50.180Z,520.60
2023-03-12T06:19:50.210Z,664.20
2023-03-12T06:20:50.161Z,999.90
2023-03-12T06:21:50.180Z,999.90
2023-03-12T06:22:50.143Z,667.10
2023-03-12T06:23:50.146Z,639.60
2023-03-12T06:24:50.168Z,999.90
2023-03-12T06:25:50.107Z,999.90
2023-03-12T06:26:50.100Z,999.90
2023-03-12T06:27:50.093Z,999.90
2023-03-12T06:28:50.077Z,999.90
2023-03-12T06:29:50.111Z,999.90
2023-03-12T06:30:50.056Z,999.90
2023-03-12T06:31:50.039Z,999.90
2023-03-12T06:32:50.073Z,999.90
2023-03-12T06:33:50.004Z,999.90
2023-03-12T06:34:50.037Z,999.90
2023-03-12T06:35:50.005Z,999.90
2023-03-12T06:36:50.032Z,999.90
2023-03-12T06:37:49.987Z,999.90
2023-03-12T06:38:49.952Z,999.90
2023-03-12T06:39:49.988Z,999.90
2023-03-12T06:40:49.936Z,999.90
2023-03-12T06:41:49.934Z,999.90
2023-03-12T06:42:49.934Z,999.90
2023-03-12T06:43:49.898Z,999.90
2023-03-12T06:44:49.931Z,920.20
2023-03-12T06:45:49.887Z,999.90
2023-03-12T06:46:50.012Z,462.40
2023-03-12T06:47:49.847Z,129.80
2023-03-12T06:48:49.855Z,932.80
2023-03-12T06:49:49.882Z,701.40
2023-03-12T06:50:49.838Z,415.20
2023-03-12T06:51:49.813Z,535.10
2023-03-12T06:52:49.809Z,194.70
2023-03-12T06:53:49.785Z,33.50
2023-03-12T06:54:49.828Z,32.10
2023-03-12T06:55:49.777Z,54.90
2023-03-12T06:56:49.752Z,60.30
2023-03-12T06:57:49.744Z,46.30
2023-03-12T06:58:49.738Z,21.20
2023-03-12T06:59:50.695Z,17.80
2023-03-12T07:00:49.721Z,19.00
2023-03-12T07:01:49.710Z,31.40
2023-03-12T07:02:49.683Z,32.90
2023-03-12T07:03:49.680Z,40.80
2023-03-12T07:04:49.728Z,38.00
2023-03-12T07:05:49.711Z,30.20
2023-03-12T07:06:49.674Z,31.10
2023-03-12T07:07:49.640Z,13.70
2023-03-12T07:08:49.638Z,22.00
2023-03-12T07:09:49.628Z,20.90
2023-03-12T07:10:49.662Z,17.90
2023-03-12T07:11:49.596Z,26.10
2023-03-12T07:12:49.579Z,33.40
2023-03-12T07:13:49.590Z,34.50
2023-03-12T07:14:49.563Z,31.40
2023-03-12T07:15:49.662Z,17.50
2023-03-12T07:16:49.540Z,17.90
2023-03-12T07:17:49.532Z,19.50
2023-03-12T07:18:49.550Z,23.10
2023-03-12T07:19:49.888Z,18.20
2023-03-12T07:20:49.538Z,19.40
2023-03-12T07:21:49.530Z,24.00
2023-03-12T07:22:49.491Z,26.30
2023-03-12T07:23:49.458Z,30.10
2023-03-12T07:24:49.443Z,30.40
2023-03-12T07:25:49.483Z,29.90
2023-03-12T07:26:49.415Z,31.10
2023-03-12T07:27:49.419Z,32.40
2023-03-12T07:28:49.405Z,32.00
2023-03-12T07:29:49.409Z,28.40
2023-03-12T07:30:49.439Z,30.60
2023-03-12T07:31:49.371Z,27.80
2023-03-12T07:32:49.377Z,29.30
2023-03-12T07:33:49.471Z,31.00
2023-03-12T07:34:49.337Z,26.60
2023-03-12T07:35:51.629Z,27.70
2023-03-12T07:36:49.476Z,31.60
2023-03-12T07:37:49.378Z,30.60
2023-03-12T07:38:49.299Z,34.70
2023-03-12T07:39:49.347Z,37.50
2023-03-12T07:40:49.329Z,44.90
2023-03-12T07:41:49.400Z,45.60
2023-03-12T07:42:49.363Z,47.40
2023-03-12T07:43:49.560Z,50.80
2023-03-12T07:44:49.222Z,43.70
2023-03-12T07:45:49.697Z,43.30
2023-03-12T07:46:49.407Z,37.80
2023-03-12T07:47:49.737Z,34.40
2023-03-12T07:48:49.171Z,32.80
2023-03-12T07:49:49.610Z,33.50
2023-03-12T07:50:49.223Z,37.20
2023-03-12T07:51:49.181Z,38.80
2023-03-12T07:52:49.268Z,38.50
2023-03-12T07:53:49.120Z,42.10
2023-03-12T07:54:49.231Z,39.70
2023-03-12T07:55:49.352Z,39.40
2023-03-12T07:56:49.541Z,34.90
2023-03-12T07:57:49.331Z,34.70
2023-03-12T07:58:49.199Z,28.50
2023-03-12T07:59:49.103Z,23.60
2023-03-12T08:00:49.112Z,21.50
2023-03-12T08:01:49.063Z,22.30
2023-03-12T08:02:49.169Z,17.90
2023-03-12T08:03:49.044Z,10.60
2023-03-12T08:04:49.238Z,8.80
2023-03-12T08:05:49.081Z,10.30
2023-03-12T08:06:49.061Z,10.10
2023-03-12T08:07:48.965Z,11.60
2023-03-12T08:08:49.199Z,11.90
2023-03-12T08:09:49.473Z,11.10
2023-03-12T08:10:48.962Z,12.30
2023-03-12T08:11:49.005Z,13.90
2023-03-12T08:12:49.201Z,13.60
2023-03-12T08:13:48.908Z,11.90
2023-03-12T08:14:49.118Z,11.70
2023-03-12T08:15:48.924Z,12.20
2023-03-12T08:16:48.908Z,10.80
2023-03-12T08:17:49.105Z,11.00
2023-03-12T08:18:48.837Z,11.80
2023-03-12T08:19:48.842Z,9.70
2023-03-12T08:20:48.886Z,9.70
2023-03-12T08:21:48.808Z,12.80
2023-03-12T08:22:48.792Z,20.80
2023-03-12T08:23:48.788Z,22.30
2023-03-12T08:24:48.940Z,21.90
2023-03-12T08:25:48.807Z,22.40
2023-03-12T08:26:48.800Z,22.30
2023-03-12T08:27:48.745Z,17.30
2023-03-12T08:28:48.741Z,12.40
2023-03-12T08:29:48.722Z,11.60
2023-03-12T08:30:48.732Z,8.10
2023-03-12T08:32:03.725Z,7.50
2023-03-12T08:32:49.694Z,8.40
2023-03-12T08:33:48.676Z,8.50
2023-03-12T08:34:48.672Z,8.00
2023-03-12T08:35:48.724Z,7.10
2023-03-12T08:36:48.664Z,6.70
2023-03-12T08:37:48.665Z,7.30
2023-03-12T08:38:48.612Z,7.10
2023-03-12T08:39:48.626Z,7.00
2023-03-12T08:40:48.642Z,7.50
2023-03-12T08:41:48.584Z,7.70
2023-03-12T08:42:48.563Z,7.10
2023-03-12T08:43:48.595Z,7.60
2023-03-12T08:44:48.593Z,8.70
2023-03-12T08:45:48.645Z,10.30
2023-03-12T08:46:48.520Z,10.50
2023-03-12T08:47:48.530Z,15.10
2023-03-12T08:48:48.510Z,22.10
2023-03-12T08:49:48.514Z,18.20
2023-03-12T08:50:48.533Z,13.70
2023-03-12T08:51:48.523Z,15.50
2023-03-12T08:52:48.453Z,17.60
2023-03-12T08:53:48.473Z,13.20
2023-03-12T08:54:48.515Z,9.00
2023-03-12T08:55:48.454Z,11.60
2023-03-12T08:56:48.448Z,11.00
2023-03-12T08:57:48.426Z,10.00
2023-03-12T08:58:48.393Z,9.10
2023-03-12T08:59:48.384Z,9.00
2023-03-12T09:00:48.429Z,8.40
2023-03-12T09:01:48.394Z,8.70
2023-03-12T09:02:48.377Z,7.90
2023-03-12T09:03:48.371Z,6.60
2023-03-12T09:04:48.393Z,6.30
2023-03-12T09:05:48.380Z,6.30
2023-03-12T09:06:48.324Z,6.40
2023-03-12T09:07:48.315Z,6.10
2023-03-12T09:08:48.300Z,6.10
2023-03-12T09:09:48.292Z,6.90
2023-03-12T09:10:48.331Z,6.20
2023-03-12T09:11:48.275Z,5.80
2023-03-12T09:12:48.240Z,5.70
2023-03-12T09:14:16.908Z,6.20
2023-03-12T09:15:02.536Z,6.60
2023-03-12T09:15:49.275Z,7.20
2023-03-12T09:16:48.255Z,6.10
2023-03-12T09:17:48.199Z,5.40
2023-03-12T09:18:48.201Z,5.70
2023-03-12T09:19:48.170Z,5.60
2023-03-12T09:20:48.186Z,5.30
2023-03-12T09:21:48.154Z,5.40
2023-03-12T09:22:48.154Z,5.60
2023-03-12T09:23:48.148Z,6.00
2023-03-12T09:24:48.130Z,6.00
2023-03-12T09:25:48.138Z,6.10
2023-03-12T09:26:48.081Z,5.80
2023-03-12T09:27:48.056Z,5.80
2023-03-12T09:28:48.095Z,6.00
2023-03-12T09:29:59.552Z,5.80
2023-03-12T09:30:49.136Z,6.10
2023-03-12T09:31:48.044Z,6.00
2023-03-12T09:32:48.079Z,6.00
2023-03-12T09:33:48.013Z,6.00
2023-03-12T09:34:47.999Z,5.90
2023-03-12T09:35:48.047Z,5.70
2023-03-12T09:36:47.977Z,5.30
2023-03-12T09:37:47.964Z,5.60
2023-03-12T09:38:47.961Z,6.10
2023-03-12T09:39:47.931Z,5.50
2023-03-12T09:40:47.904Z,5.60
2023-03-12T09:41:47.963Z,5.80
2023-03-12T09:42:47.906Z,5.60
2023-03-12T09:43:47.914Z,5.50
2023-03-12T09:44:47.867Z,5.30
2023-03-12T09:45:47.899Z,5.90
2023-03-12T09:46:47.901Z,5.70
2023-03-12T09:47:47.858Z,5.60
2023-03-12T09:48:47.854Z,5.90
2023-03-12T09:49:47.807Z,5.60
2023-03-12T09:50:47.854Z,5.70
2023-03-12T09:51:47.858Z,5.80
2023-03-12T09:52:47.806Z,6.00
2023-03-12T09:53:47.787Z,6.20
2023-03-12T09:54:47.761Z,6.30
2023-03-12T09:55:47.751Z,6.30
2023-03-12T09:56:47.773Z,5.80
2023-03-12T09:57:47.769Z,5.90
2023-03-12T09:58:47.715Z,6.00
2023-03-12T09:59:47.712Z,5.90
2023-03-12T10:00:47.790Z,6.50
2023-03-12T10:01:47.750Z,6.70
2023-03-12T10:02:47.693Z,5.70
2023-03-12T10:03:47.654Z,6.50
2023-03-12T10:04:59.055Z,5.90
2023-03-12T10:05:48.635Z,5.70
2023-03-12T10:06:47.692Z,5.50
2023-03-12T10:07:47.611Z,5.70
2023-03-12T10:08:47.611Z,5.80
2023-03-12T10:09:47.618Z,5.80
2023-03-12T10:10:47.593Z,5.70
2023-03-12T10:11:47.612Z,5.60
2023-03-12T10:12:47.764Z,5.70
2023-03-12T10:13:47.552Z,5.50
2023-03-12T10:14:47.520Z,5.40
2023-03-12T10:15:47.564Z,5.50
2023-03-12T10:16:47.577Z,5.40
2023-03-12T10:17:47.633Z,5.90
2023-03-12T10:18:48.500Z,6.00
2023-03-12T10:19:47.478Z,6.10
2023-03-12T10:20:47.466Z,6.20
2023-03-12T10:21:47.510Z,5.50
2023-03-12T10:22:47.418Z,5.90
2023-03-12T10:23:47.437Z,5.50
2023-03-12T10:24:47.443Z,5.40
2023-03-12T10:25:47.427Z,5.30
2023-03-12T10:26:47.451Z,5.40
2023-03-12T10:27:47.415Z,5.30
2023-03-12T10:28:47.383Z,5.80
2023-03-12T10:29:47.406Z,5.70
2023-03-12T10:30:47.361Z,5.60
2023-03-12T10:31:47.391Z,5.70
2023-03-12T10:32:47.374Z,5.50
2023-03-12T10:33:47.321Z,5.40
2023-03-12T10:34:47.313Z,5.80
2023-03-12T10:35:47.322Z,5.70
2023-03-12T10:36:47.353Z,5.50
2023-03-12T10:37:47.268Z,5.70
2023-03-12T10:38:47.279Z,5.40
2023-03-12T10:39:47.236Z,5.40
2023-03-12T10:40:47.249Z,5.60
2023-03-12T10:41:47.279Z,5.80
2023-03-12T10:42:47.211Z,5.60
2023-03-12T10:43:47.214Z,6.30
2023-03-12T10:44:47.179Z,6.60
2023-03-12T10:45:47.215Z,5.80
2023-03-12T10:46:47.340Z,5.60
2023-03-12T10:47:47.192Z,6.00
2023-03-12T10:48:47.144Z,5.70
2023-03-12T10:49:47.156Z,5.70
2023-03-12T10:50:47.118Z,5.80
2023-03-12T10:51:47.146Z,5.40
2023-03-12T10:52:47.097Z,5.20
2023-03-12T10:53:47.107Z,5.30
2023-03-12T10:54:47.097Z,5.40
2023-03-12T10:55:47.089Z,5.50
2023-03-12T10:56:47.104Z,5.60
2023-03-12T10:57:47.054Z,6.50
2023-03-12T10:58:47.031Z,6.30
2023-03-12T10:59:47.050Z,6.50
2023-03-12T11:00:47.007Z,6.70
2023-03-12T11:01:47.045Z,6.00
2023-03-12T11:02:46.985Z,6.20
2023-03-12T11:03:46.976Z,5.90
2023-03-12T11:04:46.967Z,5.70
2023-03-12T11:05:46.963Z,5.70
2023-03-12T11:06:47.004Z,5.70
2023-03-12T11:07:46.944Z,5.30
2023-03-12T11:08:46.933Z,5.70
2023-03-12T11:09:46.912Z,6.20
2023-03-12T11:10:46.911Z,5.80
2023-03-12T11:11:46.939Z,5.70
2023-03-12T11:12:46.874Z,5.60
2023-03-12T11:13:46.893Z,5.90
2023-03-12T11:14:46.867Z,6.20
2023-03-12T11:15:46.908Z,6.40
2023-03-12T11:16:46.938Z,6.20
2023-03-12T11:17:46.867Z,6.10
2023-03-12T11:18:46.795Z,5.30
2023-03-12T11:19:46.786Z,5.60
2023-03-12T11:20:46.777Z,5.30
2023-03-12T11:21:46.855Z,5.80
2023-03-12T11:22:46.789Z,5.90
2023-03-12T11:23:46.744Z,5.30
2023-03-12T11:24:46.756Z,5.10
2023-03-12T11:25:46.726Z,5.20
2023-03-12T11:26:46.765Z,5.40
2023-03-12T11:27:46.698Z,5.40
2023-03-12T11:28:46.711Z,5.40
2023-03-12T11:29:46.712Z,5.40
2023-03-12T11:30:46.758Z,5.20
2023-03-12T11:31:47.438Z,5.30
2023-03-12T11:32:46.667Z,5.50
2023-03-12T11:33:46.652Z,5.40
2023-03-12T11:34:46.631Z,5.90
2023-03-12T11:35:46.717Z,5.90
2023-03-12T11:36:46.645Z,5.60
2023-03-12T11:37:46.608Z,5.80
2023-03-12T11:38:46.569Z,5.70
2023-03-12T11:39:46.571Z,7.10
2023-03-12T11:40:46.548Z,5.60
2023-03-12T11:41:46.593Z,6.20
2023-03-12T11:42:46.538Z,5.80
2023-03-12T11:43:46.522Z,5.90
2023-03-12T11:44:46.528Z,5.50
2023-03-12T11:45:46.494Z,5.60
2023-03-12T11:46:46.622Z,5.30
2023-03-12T11:47:46.536Z,5.30
2023-03-12T11:48:46.515Z,5.60
2023-03-12T11:49:48.550Z,5.70
2023-03-12T11:50:46.426Z,5.80
2023-03-12T11:51:46.483Z,6.00
2023-03-12T11:52:46.404Z,5.60
2023-03-12T11:53:46.423Z,5.80
2023-03-12T11:54:46.395Z,5.30
2023-03-12T11:55:46.391Z,6.00
2023-03-12T11:56:46.464Z,5.70
2023-03-12T11:57:46.348Z,5.50
2023-03-12T11:58:46.372Z,5.50
2023-03-12T11:59:46.331Z,5.30
2023-03-12T12:00:47.885Z,5.60
2023-03-12T12:01:46.397Z,5.70
2023-03-12T12:02:46.313Z,5.50
2023-03-12T12:03:46.321Z,5.70
2023-03-12T12:04:46.291Z,5.60
2023-03-12T12:05:46.271Z,5.40
2023-03-12T12:06:48.068Z,5.70
2023-03-12T12:07:46.247Z,5.50
2023-03-12T12:08:46.237Z,5.50
2023-03-12T12:09:46.233Z,6.00
2023-03-12T12:10:46.213Z,5.40
2023-03-12T12:11:46.231Z,5.60
2023-03-12T12:12:46.183Z,5.80
2023-03-12T12:13:46.195Z,5.80
2023-03-12T12:14:46.175Z,5.90
2023-03-12T12:15:46.156Z,5.70
2023-03-12T12:16:46.340Z,5.90
2023-03-12T12:17:46.137Z,6.00
2023-03-12T12:18:46.145Z,5.80
2023-03-12T12:19:46.126Z,5.90
2023-03-12T12:20:46.163Z,6.90
2023-03-12T12:21:46.144Z,5.50
2023-03-12T12:22:46.074Z,7.00
2023-03-12T12:23:46.078Z,5.30
2023-03-12T12:24:46.076Z,5.70
2023-03-12T12:25:46.073Z,6.10
2023-03-12T12:26:46.099Z,6.70
2023-03-12T12:27:46.034Z,6.60
2023-03-12T12:28:46.021Z,5.90
2023-03-12T12:29:46.002Z,5.70
2023-03-12T12:30:45.981Z,5.80
2023-03-12T12:31:46.065Z,5.70
2023-03-12T12:32:46.003Z,5.80
2023-03-12T12:33:45.955Z,6.50
2023-03-12T12:34:45.963Z,6.40
2023-03-12T12:35:45.969Z,7.20
2023-03-12T12:36:46.071Z,7.20
2023-03-12T12:37:45.905Z,6.20
2023-03-12T12:38:45.910Z,6.50
2023-03-12T12:39:47.030Z,5.90
2023-03-12T12:40:45.883Z,5.70
2023-03-12T12:41:45.936Z,5.90
2023-03-12T12:42:45.845Z,5.70
2023-03-12T12:43:45.838Z,5.20
2023-03-12T12:44:45.818Z,5.40
2023-03-12T12:45:45.895Z,5.20
2023-03-12T12:46:45.871Z,5.20
2023-03-12T12:47:45.819Z,5.70